Time;durP1;ratioP1;P1;durP2;ratioP2;P2;SDS_P1;SDS_P2;PMS_P1;PMS_P2;Temp;Humidity;BMP_temperature;BMP_pressure;BME280_temperature;BME280_humidity;BME280_pressure;Samples;Min_cycle;Max_cycle;Signal;HPM_P1;HPM_P2
2022/09/05 00:02:04;;;;;;;;;;;21.80;62.70;;;;;;5039385;28;1291;-65
2022/09/05 00:04:33;;;;;;;;;;;21.80;62.70;;;;;;5042253;28;1250;-65
2022/09/05 00:07:01;;;;;;;;;;;21.80;62.70;;;;;;5040908;28;1898;-65
2022/09/05 00:09:33;;;;;;;;;;;21.80;62.70;;;;;;5047705;28;1221;-65
2022/09/05 00:11:59;;;;;;;;;;;21.80;62.70;;;;;;5032320;28;1199;-65
2022/09/05 00:14:43;;;;;;;;;;;21.80;62.70;;;;;;5031863;28;830;-64
2022/09/05 00:17:27;;;;;;;;;;;21.80;62.70;;;;;;5032594;28;969;-64
2022/09/05 00:19:52;;;;;;;;;;;21.80;62.80;;;;;;5033101;28;850;-64
2022/09/05 00:22:18;;;;;;;;;;;21.80;62.80;;;;;;5032390;28;1296;-64
2022/09/05 00:24:46;;;;;;;;;;;21.80;62.80;;;;;;5045182;28;1140;-63
2022/09/05 00:27:16;;;;;;;;;;;21.80;62.80;;;;;;5037473;28;1973;-64
2022/09/05 00:29:56;;;;;;;;;;;21.80;62.90;;;;;;5052859;28;807;-64
2022/09/05 00:32:41;;;;;;;;;;;21.80;62.90;;;;;;5050353;28;1214;-64
2022/09/05 00:35:34;;;;;;;;;;;21.80;62.90;;;;;;5041551;28;1453;-64
2022/09/05 00:38:08;;;;;;;;;;;21.80;62.90;;;;;;5029492;28;1350;-64
2022/09/05 00:40:37;;;;;;;;;;;21.80;62.90;;;;;;5051020;28;1267;-64
2022/09/05 00:43:22;;;;;;;;;;;21.80;63.00;;;;;;5051825;28;1205;-64
2022/09/05 00:45:57;;;;;;;;;;;21.80;63.00;;;;;;5051059;28;1949;-64
2022/09/05 00:48:25;;;;;;;;;;;21.80;63.00;;;;;;5050928;28;859;-63
2022/09/05 00:51:09;;;;;;;;;;;21.80;63.00;;;;;;5052719;28;803;-64
2022/09/05 00:53:41;;;;;;;;;;;21.80;63.00;;;;;;5052431;28;1209;-64
2022/09/05 00:56:19;;;;;;;;;;;21.80;63.00;;;;;;5051213;28;910;-64
2022/09/05 00:58:57;;;;;;;;;;;21.80;63.10;;;;;;5051073;28;883;-64
2022/09/05 01:01:25;;;;;;;;;;;21.80;63.10;;;;;;5051633;28;1181;-64
2022/09/05 01:04:00;;;;;;;;;;;21.80;63.10;;;;;;5051215;28;916;-64
2022/09/05 01:06:26;;;;;;;;;;;21.80;63.10;;;;;;5051893;28;1897;-64
2022/09/05 01:08:57;;;;;;;;;;;21.80;63.10;;;;;;5052014;28;866;-64
2022/09/05 01:12:01;;;;;;;;;;;21.80;63.20;;;;;;5051735;28;1231;-64
2022/09/05 01:14:34;;;;;;;;;;;21.80;63.20;;;;;;4990526;28;1311;-63
2022/09/05 01:17:18;;;;;;;;;;;21.80;63.20;;;;;;4990446;28;1073;-63
2022/09/05 01:19:56;;;;;;;;;;;21.80;63.30;;;;;;5029686;28;949;-64
2022/09/05 01:22:34;;;;;;;;;;;21.80;63.20;;;;;;5051394;28;1206;-64
2022/09/05 01:25:05;;;;;;;;;;;21.80;63.30;;;;;;5039703;28;1241;-64
2022/09/05 01:27:32;;;;;;;;;;;21.80;63.30;;;;;;5051950;28;1910;-64
2022/09/05 01:30:03;;;;;;;;;;;21.80;63.30;;;;;;5050820;28;878;-64
2022/09/05 01:32:28;;;;;;;;;;;21.80;63.30;;;;;;5069295;22;2003;-68
2022/09/05 01:35:20;;;;;;;;;;;21.80;63.30;;;;;;5031537;28;802;-68
2022/09/05 01:37:54;;;;;;;;;;;21.80;63.30;;;;;;5016336;28;1311;-68
2022/09/05 01:40:29;;;;;;;;;;;21.80;63.30;;;;;;5051110;28;830;-67
2022/09/05 01:42:59;;;;;;;;;;;21.80;63.40;;;;;;5035386;28;1280;-69
2022/09/05 01:45:44;;;;;;;;;;;21.70;63.30;;;;;;5034121;28;1910;-69
2022/09/05 01:48:30;;;;;;;;;;;21.80;63.40;;;;;;5034340;28;1171;-69
2022/09/05 01:51:13;;;;;;;;;;;21.80;63.40;;;;;;5033220;28;1219;-70
2022/09/05 01:53:39;;;;;;;;;;;21.80;63.40;;;;;;5034974;28;1286;-70
2022/09/05 01:56:04;;;;;;;;;;;21.80;63.40;;;;;;5034044;28;1330;-70
2022/09/05 01:58:35;;;;;;;;;;;21.80;63.40;;;;;;5035254;28;982;-70
2022/09/05 02:01:16;;;;;;;;;;;21.80;63.50;;;;;;5033675;28;863;-69
2022/09/05 02:03:52;;;;;;;;;;;21.80;63.50;;;;;;5033994;28;1204;-70
2022/09/05 02:06:27;;;;;;;;;;;21.80;63.50;;;;;;5033708;28;1898;-69
2022/09/05 02:08:59;;;;;;;;;;;21.80;63.50;;;;;;5034037;28;839;-69
2022/09/05 02:11:43;;;;;;;;;;;21.80;63.60;;;;;;5034692;28;933;-68
2022/09/05 02:14:08;;;;;;;;;;;21.70;63.60;;;;;;5033926;28;1108;-69
2022/09/05 02:16:37;;;;;;;;;;;21.80;63.60;;;;;;5034365;28;923;-70
2022/09/05 02:19:08;;;;;;;;;;;21.80;63.60;;;;;;5035126;28;815;-70
2022/09/05 02:21:36;;;;;;;;;;;21.80;63.60;;;;;;5034473;28;867;-69
2022/09/05 02:24:20;;;;;;;;;;;21.80;63.60;;;;;;5034811;28;1166;-69
2022/09/05 02:27:04;;;;;;;;;;;21.80;63.70;;;;;;5033332;28;1898;-69
2022/09/05 02:29:59;;;;;;;;;;;21.80;63.70;;;;;;5033342;28;1185;-70
2022/09/05 02:32:30;;;;;;;;;;;21.80;63.70;;;;;;5024907;28;1285;-69
2022/09/05 02:35:04;;;;;;;;;;;21.70;63.60;;;;;;5033504;28;1081;-68
2022/09/05 02:37:30;;;;;;;;;;;21.80;63.70;;;;;;5034409;28;886;-68
2022/09/05 02:40:00;;;;;;;;;;;21.80;63.70;;;;;;5034672;28;803;-68
2022/09/05 02:42:25;;;;;;;;;;;21.80;63.70;;;;;;5032716;28;1205;-68
2022/09/05 02:45:05;;;;;;;;;;;21.80;63.70;;;;;;5034146;28;1037;-68
2022/09/05 02:47:40;;;;;;;;;;;21.80;63.70;;;;;;5033217;28;1910;-69
2022/09/05 02:50:24;;;;;;;;;;;21.80;63.80;;;;;;5032229;28;1151;-69
2022/09/05 02:52:50;;;;;;;;;;;21.80;63.80;;;;;;5033691;28;1288;-68
2022/09/05 02:55:24;;;;;;;;;;;21.70;63.80;;;;;;5032827;28;868;-68
2022/09/05 02:57:52;;;;;;;;;;;21.80;63.80;;;;;;5033239;28;879;-70
2022/09/05 03:00:19;;;;;;;;;;;21.80;63.80;;;;;;5032894;28;1041;-69
2022/09/05 03:02:56;;;;;;;;;;;21.80;63.80;;;;;;5032194;28;1222;-69
2022/09/05 03:05:32;;;;;;;;;;;21.80;63.80;;;;;;5031958;28;2139;-69
2022/09/05 03:07:57;;;;;;;;;;;21.80;64.60;;;;;;5049579;28;1583;-69
2022/09/05 03:10:29;;;;;;;;;;;21.80;63.90;;;;;;5027517;28;1527;-69
2022/09/05 03:13:00;;;;;;;;;;;21.80;63.90;;;;;;5031916;28;1606;-68
2022/09/05 03:15:42;;;;;;;;;;;21.80;64.00;;;;;;5049430;28;736;-69
2022/09/05 03:18:10;;;;;;;;;;;21.80;63.90;;;;;;5049199;28;862;-69
2022/09/05 03:20:36;;;;;;;;;;;21.80;64.00;;;;;;5033940;28;1068;-67
2022/09/05 03:23:19;;;;;;;;;;;21.80;64.00;;;;;;5029480;28;1470;-68
2022/09/05 03:25:57;;;;;;;;;;;21.80;64.00;;;;;;5027125;28;1959;-69
2022/09/05 03:28:42;;;;;;;;;;;21.70;63.90;;;;;;5017168;28;1396;-69
2022/09/05 03:31:28;;;;;;;;;;;21.70;63.90;;;;;;5002277;28;1102;-69
2022/09/05 03:33:57;;;;;;;;;;;21.80;64.10;;;;;;5012826;28;1249;-70
2022/09/05 03:36:25;;;;;;;;;;;21.80;64.00;;;;;;5013633;28;886;-70
2022/09/05 03:39:09;;;;;;;;;;;21.70;64.80;;;;;;5013807;28;898;-70
2022/09/05 03:41:34;;;;;;;;;;;21.80;64.10;;;;;;5013172;28;1036;-69
2022/09/05 03:44:09;;;;;;;;;;;21.80;64.10;;;;;;5013541;28;1259;-70
2022/09/05 03:46:50;;;;;;;;;;;21.80;64.10;;;;;;5013372;28;1894;-70
2022/09/05 03:49:18;;;;;;;;;;;21.70;64.10;;;;;;5013527;28;836;-70
2022/09/05 03:51:43;;;;;;;;;;;21.80;64.20;;;;;;5011446;28;1168;-69
2022/09/05 03:54:15;;;;;;;;;;;21.80;64.20;;;;;;5013614;28;803;-69
2022/09/05 03:56:47;;;;;;;;;;;21.80;64.20;;;;;;5012140;28;1177;-68
2022/09/05 03:59:12;;;;;;;;;;;21.80;64.20;;;;;;5012189;28;844;-69
2022/09/05 04:01:41;;;;;;;;;;;21.80;64.10;;;;;;5015055;28;1472;-69
2022/09/05 04:04:08;;;;;;;;;;;21.80;64.20;;;;;;5048546;28;1566;-66
2022/09/05 04:06:46;;;;;;;;;;;21.80;64.20;;;;;;5048719;28;1898;-71
2022/09/05 04:09:14;;;;;;;;;;;21.80;64.20;;;;;;5033202;28;852;-70
2022/09/05 04:11:44;;;;;;;;;;;21.80;64.20;;;;;;5030726;28;1414;-70
2022/09/05 04:14:18;;;;;;;;;;;21.80;64.20;;;;;;5033042;28;795;-71
2022/09/05 04:16:46;;;;;;;;;;;21.80;64.30;;;;;;5048417;28;937;-69
2022/09/05 04:19:14;;;;;;;;;;;21.80;64.20;;;;;;5032589;28;787;-71
2022/09/05 04:21:47;;;;;;;;;;;21.80;64.30;;;;;;5047488;28;1292;-71
2022/09/05 04:24:26;;;;;;;;;;;21.80;64.30;;;;;;5045407;28;1529;-70
2022/09/05 04:27:10;;;;;;;;;;;21.80;64.30;;;;;;5028628;28;1893;-70
2022/09/05 04:29:38;;;;;;;;;;;21.80;64.30;;;;;;5012867;28;815;-70
2022/09/05 04:32:26;;;;;;;;;;;21.80;64.30;;;;;;5027333;28;1282;-69
2022/09/05 04:35:04;;;;;;;;;;;21.80;64.30;;;;;;5028047;28;969;-70
2022/09/05 04:37:31;;;;;;;;;;;21.80;64.30;;;;;;5012988;28;836;-70
2022/09/05 04:40:01;;;;;;;;;;;21.80;64.40;;;;;;5028268;28;990;-70
2022/09/05 04:42:27;;;;;;;;;;;21.80;64.40;;;;;;5027111;28;1366;-70
2022/09/05 04:44:57;;;;;;;;;;;21.80;64.40;;;;;;5011484;28;1229;-69
2022/09/05 04:47:29;;;;;;;;;;;21.70;64.30;;;;;;5028089;28;1969;-68
2022/09/05 04:50:14;;;;;;;;;;;21.70;64.30;;;;;;5012848;28;804;-68
2022/09/05 04:52:58;;;;;;;;;;;21.80;64.40;;;;;;5027315;28;1239;-69
2022/09/05 04:55:38;;;;;;;;;;;21.80;64.40;;;;;;5012842;28;804;-70
2022/09/05 04:58:23;;;;;;;;;;;21.80;64.40;;;;;;5012595;28;911;-68
2022/09/05 05:00:56;;;;;;;;;;;21.80;64.50;;;;;;5012516;28;1036;-69
2022/09/05 05:03:23;;;;;;;;;;;21.80;64.40;;;;;;5027556;28;1341;-69
2022/09/05 05:05:48;;;;;;;;;;;21.80;64.50;;;;;;5012672;28;1966;-69
2022/09/05 05:08:23;;;;;;;;;;;21.80;64.50;;;;;;5012693;28;903;-69
2022/09/05 05:10:56;;;;;;;;;;;21.80;64.50;;;;;;5012408;28;832;-68
2022/09/05 05:13:54;;;;;;;;;;;21.80;64.50;;;;;;5029233;28;1306;-69
2022/09/05 05:16:24;;;;;;;;;;;21.80;64.50;;;;;;5004269;28;1259;-68
2022/09/05 05:18:50;;;;;;;;;;;21.80;64.50;;;;;;5032023;28;1080;-69
2022/09/05 05:21:19;;;;;;;;;;;21.80;64.50;;;;;;5030833;28;1037;-69
2022/09/05 05:23:44;;;;;;;;;;;21.80;64.50;;;;;;5020397;28;1437;-69
2022/09/05 05:26:11;;;;;;;;;;;21.80;64.50;;;;;;5032557;28;1902;-68
2022/09/05 05:28:48;;;;;;;;;;;21.70;64.50;;;;;;5051234;28;1436;-69
2022/09/05 05:31:17;;;;;;;;;;;21.80;64.60;;;;;;5015652;28;926;-69
2022/09/05 05:33:46;;;;;;;;;;;21.80;64.60;;;;;;5014798;28;1273;-68
2022/09/05 05:36:22;;;;;;;;;;;21.80;64.60;;;;;;5014797;28;795;-69
2022/09/05 05:38:49;;;;;;;;;;;21.80;64.60;;;;;;5014829;28;844;-69
2022/09/05 05:41:18;;;;;;;;;;;21.80;64.60;;;;;;5013824;28;943;-69
2022/09/05 05:43:43;;;;;;;;;;;21.80;64.60;;;;;;5011486;28;1617;-67
2022/09/05 05:46:10;;;;;;;;;;;21.80;64.60;;;;;;5027449;28;2107;-68
2022/09/05 05:48:36;;;;;;;;;;;21.80;64.70;;;;;;5045770;28;1384;-68
2022/09/05 05:51:17;;;;;;;;;;;21.80;64.60;;;;;;5048131;28;1627;-69
2022/09/05 05:53:46;;;;;;;;;;;21.80;64.70;;;;;;5033472;28;1231;-70
2022/09/05 05:56:21;;;;;;;;;;;21.80;64.70;;;;;;5045102;28;2257;-69
2022/09/05 05:58:57;;;;;;;;;;;21.70;64.70;;;;;;5030216;28;1429;-69
2022/09/05 06:01:23;;;;;;;;;;;21.80;64.80;;;;;;5025793;28;1598;-69
2022/09/05 06:04:07;;;;;;;;;;;21.80;64.70;;;;;;5033445;28;1220;-71
2022/09/05 06:06:32;;;;;;;;;;;21.80;64.80;;;;;;5032337;28;1898;-70
2022/09/05 06:09:07;;;;;;;;;;;21.80;64.80;;;;;;5033603;28;909;-69
2022/09/05 06:11:48;;;;;;;;;;;21.80;64.70;;;;;;5032972;28;878;-69
2022/09/05 06:14:22;;;;;;;;;;;21.80;64.80;;;;;;5048619;28;903;-69
2022/09/05 06:16:57;;;;;;;;;;;21.80;64.80;;;;;;5033175;28;985;-68
2022/09/05 06:19:41;;;;;;;;;;;21.80;64.80;;;;;;5033525;28;866;-68
2022/09/05 06:22:25;;;;;;;;;;;21.80;64.90;;;;;;5032644;28;1248;-70
2022/09/05 06:24:59;;;;;;;;;;;21.80;64.90;;;;;;5013684;28;1443;-69
2022/09/05 06:27:35;;;;;;;;;;;21.80;64.80;;;;;;5025940;28;1979;-72
2022/09/05 06:30:04;;;;;;;;;;;21.80;64.90;;;;;;5031354;28;2245;-69
2022/09/05 06:32:48;;;;;;;;;;;21.80;65.70;;;;;;5030902;28;1383;-72
2022/09/05 06:35:13;;;;;;;;;;;21.80;64.90;;;;;;5027479;28;1120;-71
2022/09/05 06:37:42;;;;;;;;;;;21.80;64.90;;;;;;5029658;28;1119;-68
2022/09/05 06:40:16;;;;;;;;;;;21.80;64.90;;;;;;5032566;28;807;-67
2022/09/05 06:42:47;;;;;;;;;;;21.80;64.90;;;;;;5031945;28;1199;-68
2022/09/05 06:45:19;;;;;;;;;;;21.80;64.90;;;;;;5016311;28;2393;-67
2022/09/05 06:47:44;;;;;;;;;;;21.70;64.90;;;;;;5008388;28;1910;-68
2022/09/05 06:50:14;;;;;;;;;;;21.80;65.00;;;;;;5027615;28;1129;-69
2022/09/05 06:52:59;;;;;;;;;;;21.80;65.00;;;;;;5045169;28;1279;-66
2022/09/05 06:55:33;;;;;;;;;;;21.80;65.00;;;;;;5014393;28;789;-70
2022/09/05 06:58:08;;;;;;;;;;;21.80;65.00;;;;;;5029426;28;879;-70
2022/09/05 07:00:37;;;;;;;;;;;21.80;65.00;;;;;;5014523;28;935;-70
2022/09/05 07:03:17;;;;;;;;;;;21.80;65.00;;;;;;5012595;28;1236;-70
2022/09/05 07:05:55;;;;;;;;;;;21.80;65.00;;;;;;5045692;28;1969;-70
2022/09/05 07:08:25;;;;;;;;;;;21.80;65.00;;;;;;5014113;28;804;-70
2022/09/05 07:11:09;;;;;;;;;;;21.80;65.00;;;;;;5013876;28;1292;-70
2022/09/05 07:13:39;;;;;;;;;;;21.80;65.00;;;;;;5014334;28;1186;-70
2022/09/05 07:16:23;;;;;;;;;;;21.80;65.00;;;;;;5012773;28;840;-70
2022/09/05 07:18:58;;;;;;;;;;;21.80;65.10;;;;;;5014011;28;974;-71
2022/09/05 07:21:24;;;;;;;;;;;21.80;65.10;;;;;;5013078;28;811;-70
2022/09/05 07:24:08;;;;;;;;;;;21.80;65.10;;;;;;5013898;28;1265;-70
2022/09/05 07:26:35;;;;;;;;;;;21.80;65.10;;;;;;5013960;28;1962;-70
2022/09/05 07:29:01;;;;;;;;;;;21.80;65.20;;;;;;5012319;28;1171;-70
2022/09/05 07:31:27;;;;;;;;;;;21.80;65.20;;;;;;5028503;28;1077;-70
2022/09/05 07:34:25;;;;;;;;;;;21.80;65.10;;;;;;5029470;28;1232;-69
2022/09/05 07:36:54;;;;;;;;;;;21.80;65.10;;;;;;5001279;28;1346;-69
2022/09/05 07:39:21;;;;;;;;;;;21.80;65.10;;;;;;5012183;28;1365;-70
2022/09/05 07:41:52;;;;;;;;;;;21.80;65.20;;;;;;5027842;28;1220;-69
2022/09/05 07:44:22;;;;;;;;;;;21.80;65.20;;;;;;5029008;28;879;-69
2022/09/05 07:46:48;;;;;;;;;;;21.80;65.20;;;;;;5028516;28;1913;-69
2022/09/05 07:49:15;;;;;;;;;;;21.80;65.20;;;;;;5028936;28;1042;-70
2022/09/05 07:51:52;;;;;;;;;;;21.80;65.20;;;;;;5011318;28;1655;-70
2022/09/05 07:54:19;;;;;;;;;;;21.80;65.30;;;;;;5013322;28;875;-70
2022/09/05 07:56:47;;;;;;;;;;;21.80;65.30;;;;;;5023090;28;1356;-70
2022/09/05 07:59:13;;;;;;;;;;;21.80;66.00;;;;;;5048185;28;788;-70
2022/09/05 08:01:39;;;;;;;;;;;21.80;65.30;;;;;;5047931;28;811;-70
2022/09/05 08:04:05;;;;;;;;;;;21.80;65.30;;;;;;5048429;28;1235;-70
2022/09/05 08:06:30;;;;;;;;;;;21.80;65.30;;;;;;5048149;28;1906;-70
2022/09/05 08:09:03;;;;;;;;;;;21.80;65.30;;;;;;5048586;28;804;-70
2022/09/05 08:11:29;;;;;;;;;;;21.80;65.30;;;;;;5047718;28;915;-70
2022/09/05 08:13:59;;;;;;;;;;;21.80;65.30;;;;;;5047900;28;1179;-70
2022/09/05 08:16:25;;;;;;;;;;;21.80;65.30;;;;;;5047895;28;819;-70
2022/09/05 08:18:53;;;;;;;;;;;21.80;65.40;;;;;;5048300;28;827;-70
2022/09/05 08:21:22;;;;;;;;;;;21.80;65.50;;;;;;5047239;28;788;-70
2022/09/05 08:24:03;;;;;;;;;;;21.80;65.50;;;;;;5047980;28;1180;-70
2022/09/05 08:26:28;;;;;;;;;;;21.80;65.60;;;;;;5014739;28;1902;-70
2022/09/05 08:28:57;;;;;;;;;;;21.80;65.70;;;;;;5031504;28;1056;-70
2022/09/05 08:31:26;;;;;;;;;;;21.80;65.70;;;;;;5030904;28;934;-68
2022/09/05 08:33:52;;;;;;;;;;;21.80;65.70;;;;;;5032574;28;1186;-68
2022/09/05 08:36:32;;;;;;;;;;;21.80;65.70;;;;;;5031570;28;978;-68
2022/09/05 08:38:58;;;;;;;;;;;21.80;65.80;;;;;;5031328;28;848;-68
2022/09/05 08:41:28;;;;;;;;;;;21.80;65.70;;;;;;5030918;28;1076;-68
2022/09/05 08:44:20;;;;;;;;;;;21.80;64.50;;;;;;5031042;28;1196;-68
2022/09/05 08:46:53;;;;;;;;;;;21.80;64.70;;;;;;5030931;28;1910;-68
2022/09/05 08:49:27;;;;;;;;;;;21.80;63.20;;;;;;5034194;28;1050;-68
2022/09/05 08:51:54;;;;;;;;;;;21.80;62.50;;;;;;5034730;28;1126;-68
2022/09/05 08:54:35;;;;;;;;;;;21.80;61.50;;;;;;5035027;28;835;-68
2022/09/05 08:57:06;;;;;;;;;;;21.80;60.90;;;;;;5036113;28;824;-68
2022/09/05 08:59:37;;;;;;;;;;;21.80;60.60;;;;;;5036392;28;1231;-68
2022/09/05 09:02:04;;;;;;;;;;;21.80;59.90;;;;;;5034439;28;1371;-68
2022/09/05 09:04:44;;;;;;;;;;;21.80;59.70;;;;;;5035327;28;815;-68
2022/09/05 09:07:19;;;;;;;;;;;21.80;59.70;;;;;;5035057;28;1902;-69
2022/09/05 09:09:52;;;;;;;;;;;21.80;58.40;;;;;;5035014;28;840;-70
2022/09/05 09:12:37;;;;;;;;;;;21.80;57.90;;;;;;5034530;28;1330;-69
2022/09/05 09:15:08;;;;;;;;;;;21.80;57.70;;;;;;5036236;28;1045;-68
2022/09/05 09:17:44;;;;;;;;;;;21.70;57.60;;;;;;5034700;28;732;-68
2022/09/05 09:20:29;;;;;;;;;;;21.80;57.40;;;;;;5030838;28;1320;-69
2022/09/05 09:23:00;;;;;;;;;;;21.80;57.70;;;;;;5020853;28;2210;-69
2022/09/05 09:25:32;;;;;;;;;;;21.70;57.70;;;;;;5028994;28;1105;-68
2022/09/05 09:28:17;;;;;;;;;;;21.80;57.70;;;;;;5050097;28;1898;-68
2022/09/05 09:30:43;;;;;;;;;;;21.80;57.80;;;;;;5036077;28;855;-70
2022/09/05 09:33:08;;;;;;;;;;;21.80;57.70;;;;;;5033206;28;1302;-69
2022/09/05 09:35:34;;;;;;;;;;;21.70;58.00;;;;;;5034201;28;891;-69
2022/09/05 09:38:28;;;;;;;;;;;21.80;57.70;;;;;;5035542;28;849;-70
2022/09/05 09:40:57;;;;;;;;;;;21.80;57.50;;;;;;5015746;28;1142;-69
2022/09/05 09:43:26;;;;;;;;;;;21.80;57.70;;;;;;5035764;28;1307;-69
2022/09/05 09:46:10;;;;;;;;;;;21.80;56.90;;;;;;5034489;28;1955;-69
2022/09/05 09:48:54;;;;;;;;;;;21.80;57.20;;;;;;5035074;28;828;-69
2022/09/05 09:51:26;;;;;;;;;;;21.80;56.90;;;;;;5035056;28;836;-69
2022/09/05 09:53:51;;;;;;;;;;;21.80;56.80;;;;;;5034246;28;1121;-69
2022/09/05 09:56:22;;;;;;;;;;;21.80;56.80;;;;;;5035399;28;811;-69
2022/09/05 09:58:54;;;;;;;;;;;21.80;56.60;;;;;;5034984;28;804;-69
2022/09/05 10:01:38;;;;;;;;;;;21.80;56.90;;;;;;5033264;28;804;-70
2022/09/05 10:04:07;;;;;;;;;;;21.80;56.70;;;;;;5035158;28;1200;-70
2022/09/05 10:06:45;;;;;;;;;;;21.90;57.00;;;;;;5027293;28;1894;-69
2022/09/05 10:09:11;;;;;;;;;;;21.80;56.80;;;;;;5023017;28;1380;-69
2022/09/05 10:12:09;;;;;;;;;;;21.90;56.90;;;;;;5022280;28;1385;-69
2022/09/05 10:14:44;;;;;;;;;;;21.90;56.80;;;;;;5001626;28;1548;-68
2022/09/05 10:17:13;;;;;;;;;;;21.90;56.40;;;;;;5023686;28;1196;-69
2022/09/05 10:19:41;;;;;;;;;;;21.90;56.60;;;;;;5033070;28;1219;-69
2022/09/05 10:22:10;;;;;;;;;;;21.90;56.40;;;;;;5033172;28;1230;-69
2022/09/05 10:24:44;;;;;;;;;;;21.90;56.30;;;;;;5022634;28;1146;-68
2022/09/05 10:27:21;;;;;;;;;;;22.00;56.20;;;;;;5046808;28;1894;-69
2022/09/05 10:29:59;;;;;;;;;;;22.00;56.10;;;;;;5048362;28;1188;-69
2022/09/05 10:32:38;;;;;;;;;;;22.00;56.20;;;;;;5033380;28;1212;-69
2022/09/05 10:35:17;;;;;;;;;;;22.00;56.40;;;;;;5049827;28;819;-69
2022/09/05 10:38:10;;;;;;;;;;;22.00;56.40;;;;;;5049765;28;938;-69
2022/09/05 10:40:35;;;;;;;;;;;22.00;56.30;;;;;;5032950;28;1098;-69
2022/09/05 10:43:07;;;;;;;;;;;22.00;56.50;;;;;;5048795;28;1250;-69
2022/09/05 10:45:52;;;;;;;;;;;22.00;56.70;;;;;;5048638;28;851;-69
2022/09/05 10:48:20;;;;;;;;;;;22.00;56.70;;;;;;5022726;28;1069;-69
2022/09/05 10:50:59;;;;;;;;;;;22.00;56.70;;;;;;5049195;28;1061;-69
2022/09/05 10:53:42;;;;;;;;;;;22.00;56.40;;;;;;5049047;28;1241;-69
2022/09/05 10:56:09;;;;;;;;;;;22.00;56.30;;;;;;5048526;28;2944;-69
2022/09/05 10:58:55;;;;;;;;;;;22.00;56.40;;;;;;5024538;28;1104;-69
2022/09/05 11:01:27;;;;;;;;;;;22.10;56.10;;;;;;5019060;28;1089;-69
2022/09/05 11:03:52;;;;;;;;;;;22.10;56.00;;;;;;5046699;28;1365;-69
2022/09/05 11:06:19;;;;;;;;;;;22.10;55.90;;;;;;5026149;28;1961;-69
2022/09/05 11:08:52;;;;;;;;;;;22.10;55.80;;;;;;5045646;28;1146;-69
2022/09/05 11:11:18;;;;;;;;;;;22.10;55.80;;;;;;5026026;28;944;-69
2022/09/05 11:13:46;;;;;;;;;;;22.10;55.80;;;;;;5031179;28;1366;-69
2022/09/05 11:16:20;;;;;;;;;;;22.10;55.60;;;;;;5033485;28;818;-68
2022/09/05 11:19:05;;;;;;;;;;;22.10;55.50;;;;;;5024664;28;1226;-68
2022/09/05 11:21:50;;;;;;;;;;;22.10;55.50;;;;;;5033208;28;970;-68
2022/09/05 11:24:35;;;;;;;;;;;22.10;55.70;;;;;;5046750;28;1288;-69
2022/09/05 11:27:01;;;;;;;;;;;22.10;55.70;;;;;;5015590;28;1895;-69
2022/09/05 11:29:35;;;;;;;;;;;22.10;55.40;;;;;;5026933;28;1164;-68
2022/09/05 11:32:16;;;;;;;;;;;22.10;55.30;;;;;;5018849;28;1409;-69
2022/09/05 11:34:56;;;;;;;;;;;22.10;55.20;;;;;;5021656;28;1271;-71
2022/09/05 11:37:40;;;;;;;;;;;22.10;55.20;;;;;;5022316;28;1268;-69
2022/09/05 11:40:24;;;;;;;;;;;22.10;55.30;;;;;;5021934;28;1201;-69
2022/09/05 11:42:49;;;;;;;;;;;22.20;55.20;;;;;;5021678;28;1379;-70
2022/09/05 11:45:33;;;;;;;;;;;22.20;55.10;;;;;;5020985;28;1234;-68
2022/09/05 11:48:20;;;;;;;;;;;22.20;55.00;;;;;;5021376;28;1971;-69
2022/09/05 11:50:52;;;;;;;;;;;22.20;55.20;;;;;;5022464;28;1197;-69
2022/09/05 11:53:24;;;;;;;;;;;22.20;55.30;;;;;;5020111;28;1231;-68
2022/09/05 11:56:02;;;;;;;;;;;22.20;55.40;;;;;;5020310;28;1228;-69
2022/09/05 11:58:30;;;;;;;;;;;22.20;55.80;;;;;;5021949;28;1295;-69
2022/09/05 12:01:04;;;;;;;;;;;22.20;56.00;;;;;;5020738;28;1192;-69
2022/09/05 12:03:40;;;;;;;;;;;22.20;55.80;;;;;;5021507;28;1305;-68
2022/09/05 12:06:20;;;;;;;;;;;22.20;56.00;;;;;;5021141;28;1957;-68
2022/09/05 12:08:48;;;;;;;;;;;22.20;56.20;;;;;;5024271;28;1200;-70
2022/09/05 12:11:33;;;;;;;;;;;22.20;56.00;;;;;;5024951;28;1333;-71
2022/09/05 12:14:04;;;;;;;;;;;22.20;55.90;;;;;;5023233;28;1330;-70
2022/09/05 12:16:29;;;;;;;;;;;22.20;56.00;;;;;;5020411;28;1213;-70
2022/09/05 12:19:03;;;;;;;;;;;22.20;55.90;;;;;;5020576;28;1227;-67
2022/09/05 12:21:28;;;;;;;;;;;22.20;55.90;;;;;;5002476;28;1301;-69
2022/09/05 12:23:59;;;;;;;;;;;22.20;56.10;;;;;;5023298;28;1271;-68
2022/09/05 12:26:41;;;;;;;;;;;22.20;56.10;;;;;;5014275;28;1910;-68
2022/09/05 12:29:08;;;;;;;;;;;22.20;55.90;;;;;;5032295;28;790;-68
2022/09/05 12:31:37;;;;;;;;;;;22.20;56.00;;;;;;5047380;28;859;-68
2022/09/05 12:34:08;;;;;;;;;;;22.20;55.80;;;;;;5032392;28;1212;-68
2022/09/05 12:36:37;;;;;;;;;;;22.20;55.70;;;;;;5047168;28;878;-68
2022/09/05 12:39:19;;;;;;;;;;;22.20;55.50;;;;;;5032753;28;859;-68
2022/09/05 12:41:59;;;;;;;;;;;22.20;55.20;;;;;;5046737;28;1209;-68
2022/09/05 12:44:35;;;;;;;;;;;22.20;55.40;;;;;;5048028;28;858;-68
2022/09/05 12:47:01;;;;;;;;;;;22.30;55.30;;;;;;5031937;28;1906;-68
2022/09/05 12:49:45;;;;;;;;;;;22.30;55.20;;;;;;5032382;28;787;-68
2022/09/05 12:52:15;;;;;;;;;;;22.20;55.00;;;;;;5031426;28;1281;-68
2022/09/05 12:54:44;;;;;;;;;;;22.30;55.20;;;;;;5047427;28;877;-67
2022/09/05 12:57:17;;;;;;;;;;;22.20;55.00;;;;;;5046918;28;807;-67
2022/09/05 12:59:43;;;;;;;;;;;22.20;54.90;;;;;;5047338;28;882;-68
2022/09/05 13:02:09;;;;;;;;;;;22.20;55.00;;;;;;5046726;28;1228;-69
2022/09/05 13:04:39;;;;;;;;;;;22.30;54.90;;;;;;5047100;28;978;-67
2022/09/05 13:07:08;;;;;;;;;;;22.30;54.60;;;;;;5047082;28;1898;-69
2022/09/05 13:09:40;;;;;;;;;;;22.30;54.80;;;;;;5028872;28;2613;-69
2022/09/05 13:12:11;;;;;;;;;;;22.30;54.60;;;;;;5034803;28;2591;-69
2022/09/05 13:14:49;;;;;;;;;;;22.30;54.70;;;;;;5018537;28;2119;-69
2022/09/05 13:17:14;;;;;;;;;;;22.30;55.00;;;;;;5026174;28;1114;-69
2022/09/05 13:19:42;;;;;;;;;;;22.30;55.10;;;;;;5027360;28;1257;-69
2022/09/05 13:22:09;;;;;;;;;;;22.30;54.80;;;;;;5027065;28;1502;-69
2022/09/05 13:24:40;;;;;;;;;;;22.30;54.60;;;;;;5028992;28;1202;-69
2022/09/05 13:27:16;;;;;;;;;;;22.30;54.40;;;;;;5029058;28;2174;-69
2022/09/05 13:29:55;;;;;;;;;;;22.30;54.30;;;;;;5029434;28;1166;-69
2022/09/05 13:35:18;;;;;;;;;;;22.30;54.40;;;;;;5043688;28;1648;-67
2022/09/05 13:37:45;;;;;;;;;;;22.30;54.50;;;;;;5055231;28;881;-67
2022/09/05 13:40:14;;;;;;;;;;;22.30;54.60;;;;;;5053882;28;824;-68
2022/09/05 13:42:43;;;;;;;;;;;22.30;54.70;;;;;;5054383;28;1311;-68
2022/09/05 13:45:14;;;;;;;;;;;22.30;54.60;;;;;;5055211;28;814;-67
2022/09/05 13:47:57;;;;;;;;;;;22.30;54.40;;;;;;5070467;28;1909;-68
2022/09/05 13:50:27;;;;;;;;;;;22.40;54.40;;;;;;5054674;28;1067;-67
2022/09/05 13:52:57;;;;;;;;;;;22.30;54.30;;;;;;5070013;28;1342;-67
2022/09/05 13:55:26;;;;;;;;;;;22.30;54.30;;;;;;5070166;28;883;-67
2022/09/05 13:57:56;;;;;;;;;;;22.30;54.30;;;;;;5054846;28;858;-68
2022/09/05 14:00:37;;;;;;;;;;;22.40;54.40;;;;;;5070249;28;842;-68
2022/09/05 14:03:21;;;;;;;;;;;22.30;54.20;;;;;;5069563;28;1253;-67
2022/09/05 14:05:49;;;;;;;;;;;22.40;54.40;;;;;;5054715;28;1890;-67
2022/09/05 14:08:33;;;;;;;;;;;22.30;54.40;;;;;;5055246;28;871;-67
2022/09/05 14:11:12;;;;;;;;;;;22.40;54.60;;;;;;5053845;28;1048;-68
2022/09/05 14:13:47;;;;;;;;;;;22.40;54.70;;;;;;5054982;28;1212;-68
2022/09/05 14:16:15;;;;;;;;;;;22.30;54.90;;;;;;5051943;28;1841;-67
2022/09/05 14:21:32;;;;;;;;;;;22.30;55.20;;;;;;5049552;28;1201;-67
2022/09/05 14:23:59;;;;;;;;;;;22.30;55.30;;;;;;5049649;28;1300;-67
2022/09/05 14:26:25;;;;;;;;;;;22.30;55.10;;;;;;5053020;28;1949;-67
2022/09/05 14:28:55;;;;;;;;;;;22.40;54.70;;;;;;5054552;28;938;-67
2022/09/05 14:31:21;;;;;;;;;;;22.40;54.60;;;;;;5069303;28;1229;-66
2022/09/05 14:34:08;;;;;;;;;;;22.40;54.40;;;;;;5053189;28;1245;-67
2022/09/05 14:36:47;;;;;;;;;;;22.40;54.40;;;;;;5052609;28;1040;-67
2022/09/05 14:39:17;;;;;;;;;;;22.40;54.40;;;;;;5053390;28;858;-67
2022/09/05 14:42:17;;;;;;;;;;;22.40;54.30;;;;;;5053673;28;1021;-67
2022/09/05 14:44:49;;;;;;;;;;;22.40;54.20;;;;;;5026623;28;2318;-67
2022/09/05 14:47:21;;;;;;;;;;;22.40;54.20;;;;;;5048551;28;1905;-67
2022/09/05 14:49:46;;;;;;;;;;;22.40;54.20;;;;;;5043749;28;1078;-66
2022/09/05 14:52:32;;;;;;;;;;;22.30;54.20;;;;;;5053548;28;810;-66
2022/09/05 14:54:58;;;;;;;;;;;22.30;53.90;;;;;;5052928;28;1160;-66
2022/09/05 14:57:43;;;;;;;;;;;22.30;54.60;;;;;;5052464;28;996;-66
2022/09/05 15:00:16;;;;;;;;;;;22.30;54.00;;;;;;5052793;28;862;-68
2022/09/05 15:02:45;;;;;;;;;;;22.30;53.80;;;;;;5051877;28;1317;-67
2022/09/05 15:05:14;;;;;;;;;;;22.30;53.80;;;;;;5052521;28;881;-66
2022/09/05 15:07:49;;;;;;;;;;;22.30;53.70;;;;;;5053656;28;1932;-68
2022/09/05 15:10:15;;;;;;;;;;;22.30;53.90;;;;;;5052429;28;853;-67
2022/09/05 15:12:51;;;;;;;;;;;22.30;53.90;;;;;;5052572;28;1321;-67
2022/09/05 15:15:24;;;;;;;;;;;22.30;54.00;;;;;;5052767;28;847;-68
2022/09/05 15:17:51;;;;;;;;;;;22.30;54.10;;;;;;5052683;28;922;-67